Time;durP1;ratioP1;P1;durP2;ratioP2;P2;SDS_P1;SDS_P2;PMS_P1;PMS_P2;Temp;Humidity;BMP_temperature;BMP_pressure;BME280_temperature;BME280_humidity;BME280_pressure;Samples;Min_cycle;Max_cycle;Signal;HPM_P1;HPM_P2
2021/10/02 00:34:09;;;;;;;33.67;21.45;;;;;;;2.93;100.00;100729.96;1719816;83;21093;-58
2021/10/02 00:46:59;;;;;;;35.40;21.42;;;;;;;2.54;100.00;100725.52;1695473;83;21139;-58
2021/10/02 00:49:25;;;;;;;30.17;19.70;;;;;;;2.60;100.00;100726.64;1707769;83;21456;-58
2021/10/02 00:51:52;;;;;;;38.10;18.75;;;;;;;2.72;100.00;100727.91;1717672;83;20969;-58
2021/10/02 00:54:18;;;;;;;28.20;18.23;;;;;;;2.85;100.00;100730.02;1722002;83;20966;-58
2021/10/02 00:56:45;;;;;;;32.90;17.75;;;;;;;2.89;100.00;100729.97;1723159;82;20886;-59
2021/10/02 00:59:12;;;;;;;30.20;17.95;;;;;;;2.93;100.00;100728.13;1723625;83;21118;-58
2021/10/02 01:01:51;;;;;;;31.35;20.72;;;;;;;3.02;100.00;100720.14;1704491;83;20922;-59
2021/10/02 01:04:49;;;;;;;25.70;18.35;;;;;;;3.03;100.00;100725.25;1698139;83;20889;-59
2021/10/02 01:07:41;;;;;;;33.63;18.27;;;;;;;2.97;100.00;100718.83;1697197;83;21474;-59
2021/10/02 01:10:44;;;;;;;33.78;19.00;;;;;;;2.89;100.00;100716.72;1718853;83;21000;-59
2021/10/02 01:13:24;;;;;;;34.92;21.62;;;;;;;2.81;100.00;100711.47;1721344;82;21120;-59
2021/10/02 01:16:12;;;;;;;35.33;20.48;;;;;;;2.75;100.00;100711.17;1697705;82;21020;-59
2021/10/02 01:18:51;;;;;;;37.93;21.48;;;;;;;2.74;100.00;100713.51;1696217;83;20982;-59
2021/10/02 01:21:52;;;;;;;31.42;19.37;;;;;;;2.65;100.00;100709.23;1682173;83;20938;-59
2021/10/02 01:24:44;;;;;;;34.65;21.90;;;;;;;2.54;100.00;100709.61;1713126;83;21362;-59
2021/10/02 01:27:57;;;;;;;37.13;21.82;;;;;;;2.41;100.00;100704.87;1709383;82;21227;-59
2021/10/02 01:33:22;;;;;;;41.20;22.42;;;;;;;2.11;100.00;100705.98;1690463;83;21003;-59
2021/10/02 01:35:46;;;;;;;38.58;22.52;;;;;;;2.06;100.00;100711.47;1680575;83;20956;-59
2021/10/02 01:48:50;;;;;;;28.75;18.02;;;;;;;2.23;100.00;100710.89;1685879;83;20893;-58
2021/10/02 01:51:17;;;;;;;36.40;19.57;;;;;;;2.27;100.00;100707.73;1711728;83;20921;-57
2021/10/02 01:53:44;;;;;;;32.25;18.65;;;;;;;2.27;100.00;100704.27;1706218;83;21512;-58
2021/10/02 01:56:15;;;;;;;29.23;18.98;;;;;;;2.26;100.00;100710.06;1702294;83;20865;-58
2021/10/02 01:58:42;;;;;;;28.07;19.32;;;;;;;2.25;100.00;100699.13;1712754;83;21335;-58
2021/10/02 02:01:08;;;;;;;28.67;17.37;;;;;;;2.24;100.00;100701.97;1686077;83;20961;-57
2021/10/02 02:03:38;;;;;;;31.00;18.48;;;;;;;2.23;100.00;100705.59;1711909;83;21034;-58
2021/10/02 02:06:05;;;;;;;24.67;17.02;;;;;;;2.22;100.00;100702.63;1712133;83;21121;-58
2021/10/02 02:08:31;;;;;;;34.35;19.70;;;;;;;2.21;100.00;100703.64;1712045;82;20926;-57
2021/10/02 02:10:59;;;;;;;33.28;20.10;;;;;;;2.15;100.00;100698.50;1666688;83;20922;-57
2021/10/02 02:13:26;;;;;;;28.35;16.93;;;;;;;2.09;100.00;100700.52;1691194;83;20883;-58
2021/10/02 02:15:54;;;;;;;33.88;19.45;;;;;;;2.04;100.00;100693.59;1664829;85;21036;-58
2021/10/02 02:18:23;;;;;;;32.95;18.67;;;;;;;1.98;100.00;100696.90;1707384;83;20968;-58
2021/10/02 02:21:04;;;;;;;36.57;19.50;;;;;;;1.93;100.00;100696.90;1711312;83;20889;-58
2021/10/02 02:23:30;;;;;;;30.37;19.30;;;;;;;1.89;100.00;100691.63;1712932;83;21718;-57
2021/10/02 02:26:03;;;;;;;33.85;20.02;;;;;;;1.88;100.00;100701.06;1710751;83;20941;-58
2021/10/02 02:28:30;;;;;;;32.75;20.30;;;;;;;1.90;100.00;100697.75;1706890;82;20866;-58
2021/10/02 02:30:56;;;;;;;31.45;18.20;;;;;;;1.89;100.00;100697.44;1662709;83;21755;-58
2021/10/02 02:33:23;;;;;;;25.85;17.00;;;;;;;1.89;100.00;100698.76;1687777;83;20889;-58
2021/10/02 02:35:49;;;;;;;26.70;18.17;;;;;;;1.86;100.00;100691.98;1686236;83;20924;-58
2021/10/02 02:38:15;;;;;;;29.65;16.80;;;;;;;1.84;100.00;100697.94;1686361;83;20956;-59
2021/10/02 02:40:42;;;;;;;25.45;18.00;;;;;;;1.82;100.00;100694.63;1700889;83;21352;-58
2021/10/02 02:43:09;;;;;;;28.85;18.20;;;;;;;1.82;100.00;100691.16;1713172;83;23348;-58
2021/10/02 02:45:38;;;;;;;29.05;17.12;;;;;;;1.78;100.00;100695.95;1698188;82;20976;-58
2021/10/02 02:48:15;;;;;;;25.08;17.73;;;;;;;1.74;100.00;100697.30;1687954;83;21427;-58
2021/10/02 02:50:47;;;;;;;23.73;17.67;;;;;;;1.71;100.00;100692.32;1704167;83;21027;-58
2021/10/02 02:53:28;;;;;;;23.70;17.98;;;;;;;1.71;100.00;100684.37;1687990;83;21403;-59
2021/10/02 02:56:02;;;;;;;25.30;17.92;;;;;;;1.70;100.00;100686.20;1691965;83;21154;-58
2021/10/02 02:58:29;;;;;;;27.27;18.02;;;;;;;1.67;100.00;100682.58;1685257;85;20968;-58
2021/10/02 03:01:00;;;;;;;27.20;15.65;;;;;;;1.66;100.00;100681.41;1685914;85;21395;-58
2021/10/02 03:03:31;;;;;;;29.87;17.00;;;;;;;1.68;100.00;100684.22;1687699;83;21428;-58
2021/10/02 03:06:02;;;;;;;27.75;17.60;;;;;;;1.68;100.00;100680.25;1692184;83;20910;-58
2021/10/02 03:08:32;;;;;;;27.40;18.02;;;;;;;1.69;100.00;100677.09;1688729;82;22531;-58
2021/10/02 03:11:01;;;;;;;29.18;17.15;;;;;;;1.66;100.00;100674.80;1695508;83;20964;-58
2021/10/02 03:13:34;;;;;;;23.35;16.20;;;;;;;1.64;100.00;100679.42;1712922;82;20893;-58
2021/10/02 03:16:03;;;;;;;28.92;17.80;;;;;;;1.58;100.00;100674.31;1712948;83;21376;-58
2021/10/02 03:18:32;;;;;;;25.72;17.12;;;;;;;1.54;100.00;100673.48;1695061;83;20901;-59
2021/10/02 03:20:59;;;;;;;27.40;18.55;;;;;;;1.49;100.00;100669.55;1660395;83;21219;-58
2021/10/02 03:23:27;;;;;;;27.40;17.35;;;;;;;1.45;100.00;100676.66;1711022;82;20971;-58
2021/10/02 03:25:53;;;;;;;23.42;16.62;;;;;;;1.39;100.00;100671.52;1713356;83;21067;-58
2021/10/02 03:28:20;;;;;;;29.60;17.32;;;;;;;1.39;100.00;100671.52;1719254;82;23231;-58
2021/10/02 03:30:48;;;;;;;27.42;17.65;;;;;;;1.41;100.00;100676.14;1740191;82;20960;-58
2021/10/02 03:33:14;;;;;;;30.17;17.87;;;;;;;1.42;100.00;100675.64;1741806;82;21178;-58
2021/10/02 03:35:41;;;;;;;29.65;18.37;;;;;;;1.40;100.00;100673.19;1741923;82;20976;-58
2021/10/02 03:38:08;;;;;;;27.73;19.70;;;;;;;1.40;100.00;100671.86;1739833;82;20917;-59
2021/10/02 03:40:36;;;;;;;26.68;18.62;;;;;;;1.36;100.00;100667.06;1742231;82;20897;-58
2021/10/02 03:43:02;;;;;;;28.57;19.65;;;;;;;1.32;100.00;100665.23;1743300;82;20906;-58
2021/10/02 03:45:30;;;;;;;34.27;19.45;;;;;;;1.32;100.00;100665.73;1743407;82;21136;-58
2021/10/02 03:47:57;;;;;;;33.65;21.20;;;;;;;1.32;100.00;100668.38;1740725;82;20913;-58
2021/10/02 03:50:24;;;;;;;32.85;20.08;;;;;;;1.33;100.00;100669.55;1723378;82;20964;-58
2021/10/02 03:52:51;;;;;;;26.48;19.00;;;;;;;1.35;100.00;100671.54;1713787;82;20885;-58
2021/10/02 03:55:18;;;;;;;29.37;17.45;;;;;;;1.38;100.00;100663.77;1715941;82;20991;-58
2021/10/02 03:57:44;;;;;;;32.88;18.80;;;;;;;1.39;100.00;100668.87;1726132;82;21214;-58
2021/10/02 04:00:11;;;;;;;41.98;20.12;;;;;;;1.38;100.00;100667.23;1722827;82;20897;-58
2021/10/02 04:02:39;;;;;;;25.27;18.07;;;;;;;1.37;100.00;100671.35;1724523;82;21603;-58
2021/10/02 04:05:08;;;;;;;37.60;20.75;;;;;;;1.39;100.00;100674.16;1730758;82;21549;-58
2021/10/02 04:07:35;;;;;;;;;;;;;;;1.40;100.00;100673.19;1721779;82;20928;-58
2021/10/02 04:10:06;;;;;;;28.80;18.17;;;;;;;1.44;100.00;100681.09;1713808;82;21145;-58
2021/10/02 04:12:34;;;;;;;31.85;20.27;;;;;;;1.43;100.00;100670.70;1713747;82;20963;-58
2021/10/02 04:15:00;;;;;;;38.28;21.33;;;;;;;1.41;100.00;100669.53;1733349;82;20957;-58
2021/10/02 04:17:27;;;;;;;34.38;20.12;;;;;;;1.43;100.00;100664.09;1719951;82;20877;-59
2021/10/02 04:19:54;;;;;;;32.88;19.37;;;;;;;1.48;100.00;100665.73;1740878;82;20909;-58
2021/10/02 04:22:23;;;;;;;35.92;22.42;;;;;;;1.53;100.00;100667.87;1743047;82;20861;-58
2021/10/02 04:24:50;;;;;;;39.83;21.25;;;;;;;1.58;100.00;100672.99;1728846;82;20975;-59
2021/10/02 04:27:16;;;;;;;30.20;20.65;;;;;;;1.61;100.00;100673.15;1715657;82;20961;-58
2021/10/02 04:29:43;;;;;;;31.82;19.52;;;;;;;1.64;100.00;100669.69;1713554;83;20917;-58
2021/10/02 04:32:09;;;;;;;36.48;22.02;;;;;;;1.66;100.00;100678.27;1713727;83;20908;-58
2021/10/02 04:34:37;;;;;;;31.23;19.73;;;;;;;1.70;100.00;100680.09;1713913;83;22104;-58
2021/10/02 04:37:04;;;;;;;35.68;21.77;;;;;;;1.75;100.00;100672.47;1713699;83;20964;-58
2021/10/02 04:39:31;;;;;;;26.80;20.20;;;;;;;1.84;100.00;100678.08;1713780;83;20834;-58
2021/10/02 04:41:57;;;;;;;35.13;21.15;;;;;;;2.02;100.00;100681.83;1713727;83;20948;-58
2021/10/02 04:44:24;;;;;;;30.52;19.02;;;;;;;2.28;100.00;100689.53;1713864;83;20965;-58
2021/10/02 04:46:51;;;;;;;27.80;20.20;;;;;;;2.57;100.00;100689.38;1713640;83;21741;-58
2021/10/02 04:49:18;;;;;;;33.98;20.08;;;;;;;2.86;100.00;100681.27;1713598;83;20900;-58
2021/10/02 04:51:45;;;;;;;34.50;19.35;;;;;;;3.12;100.00;100683.08;1713395;83;20913;-58
2021/10/02 04:54:12;;;;;;;30.05;19.48;;;;;;;3.36;100.00;100682.58;1713822;83;20850;-58
2021/10/02 04:56:39;;;;;;;30.00;20.82;;;;;;;3.61;100.00;100681.34;1713875;83;20913;-58
2021/10/02 04:59:06;;;;;;;29.57;19.10;;;;;;;3.90;100.00;100683.72;1713790;83;21100;-58
2021/10/02 05:01:32;;;;;;;28.50;18.90;;;;;;;4.15;100.00;100686.10;1713549;83;20881;-58
2021/10/02 05:04:01;;;;;;;36.48;19.50;;;;;;;4.36;100.00;100686.19;1713479;83;20969;-58
2021/10/02 05:06:28;;;;;;;29.82;19.15;;;;;;;4.60;100.00;100685.02;1713883;83;20894;-58
2021/10/02 05:08:55;;;;;;;29.73;18.03;;;;;;;4.86;100.00;100684.50;1713861;83;21475;-58
2021/10/02 05:11:21;;;;;;;26.23;16.97;;;;;;;5.11;100.00;100684.95;1713750;83;21556;-59
2021/10/02 05:13:48;;;;;;;28.70;18.45;;;;;;;5.28;100.00;100691.36;1713105;83;20921;-58
2021/10/02 05:16:14;;;;;;;28.12;16.45;;;;;;;5.41;100.00;100688.80;1719120;83;20917;-58
2021/10/02 05:18:41;;;;;;;31.57;17.48;;;;;;;5.61;100.00;100694.31;1713792;83;21340;-59
2021/10/02 05:21:08;;;;;;;29.00;17.85;;;;;;;5.83;100.00;100695.58;1713763;83;20953;-59
2021/10/02 05:23:34;;;;;;;25.25;16.67;;;;;;;6.08;100.00;100697.33;1713888;83;21486;-59
2021/10/02 05:26:01;;;;;;;29.25;18.00;;;;;;;6.33;100.00;100702.47;1713241;83;20850;-58
2021/10/02 05:28:28;;;;;;;32.10;16.17;;;;;;;6.55;100.00;100704.52;1718325;83;21424;-59
2021/10/02 05:30:55;;;;;;;24.72;16.32;;;;;;;6.79;100.00;100705.84;1685835;85;21470;-58
2021/10/02 05:33:21;;;;;;;27.80;15.83;;;;;;;6.99;100.00;100708.56;1685589;85;20877;-59
2021/10/02 05:35:48;;;;;;;26.27;16.35;;;;;;;7.13;100.00;100717.92;1688450;83;21184;-59
2021/10/02 05:38:19;;;;;;;29.90;16.32;;;;;;;7.35;100.00;100720.75;1687927;83;20929;-58
2021/10/02 05:40:45;;;;;;;23.30;15.48;;;;;;;7.61;100.00;100722.60;1693614;83;20901;-58
2021/10/02 05:43:12;;;;;;;26.33;16.15;;;;;;;7.86;100.00;100723.31;1677505;84;20949;-59
2021/10/02 05:45:38;;;;;;;22.85;15.55;;;;;;;8.06;100.00;100721.45;1677790;85;20926;-58
2021/10/02 05:48:05;;;;;;;24.50;16.37;;;;;;;8.25;100.00;100721.08;1677888;85;21106;-58
2021/10/02 05:50:31;;;;;;;24.27;15.63;;;;;;;8.30;100.00;100723.94;1677750;84;20905;-59
2021/10/02 05:52:58;;;;;;;22.22;15.48;;;;;;;8.54;100.00;100727.00;1677884;84;20974;-59
2021/10/02 05:55:25;;;;;;;24.27;15.43;;;;;;;8.75;100.00;100730.73;1706770;81;21044;-58
2021/10/02 05:57:51;;;;;;;20.95;14.87;;;;;;;8.88;100.00;100738.39;1713155;82;20910;-58
2021/10/02 06:00:17;;;;;;;17.65;13.65;;;;;;;8.97;100.00;100733.92;1690825;83;21869;-59
2021/10/02 06:02:44;;;;;;;20.48;13.65;;;;;;;9.16;100.00;100736.68;1705114;83;21520;-59
2021/10/02 06:05:10;;;;;;;17.60;13.30;;;;;;;9.52;100.00;100737.37;1693898;83;20913;-58
2021/10/02 06:07:37;;;;;;;18.77;13.25;;;;;;;9.81;100.00;100741.78;1716021;81;20955;-58
2021/10/02 06:10:08;;;;;;;24.95;13.15;;;;;;;10.05;98.28;100740.95;1712791;82;21427;-59
2021/10/02 06:12:35;;;;;;;17.07;12.70;;;;;;;10.42;97.44;100745.03;1687787;83;21739;-59
2021/10/02 06:15:02;;;;;;;20.17;13.75;;;;;;;10.77;94.20;100746.28;1713355;83;20928;-59
2021/10/02 06:17:28;;;;;;;23.02;13.10;;;;;;;10.75;91.97;100753.21;1671017;83;20976;-61
2021/10/02 06:19:57;;;;;;;23.10;12.65;;;;;;;10.85;92.09;100752.18;1724942;81;20933;-59
2021/10/02 06:22:23;;;;;;;26.20;13.93;;;;;;;11.21;90.76;100751.78;1724791;82;20891;-59
2021/10/02 06:24:51;;;;;;;29.55;13.68;;;;;;;11.62;87.90;100755.52;1724320;83;21189;-59
2021/10/02 06:27:17;;;;;;;16.25;11.33;;;;;;;11.78;85.01;100752.66;1724165;83;20910;-59
2021/10/02 06:29:44;;;;;;;22.35;13.08;;;;;;;11.96;84.99;100754.48;1713277;82;20984;-59
2021/10/02 06:32:10;;;;;;;29.77;13.38;;;;;;;12.19;83.11;100757.16;1712358;83;21013;-58
2021/10/02 06:34:37;;;;;;;22.00;12.20;;;;;;;12.40;81.86;100756.28;1716795;82;20956;-59
2021/10/02 06:37:04;;;;;;;25.80;13.68;;;;;;;12.16;81.54;100758.17;1704996;82;21169;-60
2021/10/02 06:39:31;;;;;;;23.70;12.85;;;;;;;12.22;82.16;100757.21;1704460;82;21229;-58
2021/10/02 06:41:58;;;;;;;24.53;12.63;;;;;;;12.60;80.14;100764.78;1691659;83;20941;-59
2021/10/02 06:44:25;;;;;;;15.60;12.00;;;;;;;12.79;79.35;100767.33;1685813;83;21864;-57
2021/10/02 06:46:52;;;;;;;23.22;14.53;;;;;;;12.74;77.21;100764.50;1687059;83;21052;-57
2021/10/02 06:49:21;;;;;;;22.52;12.78;;;;;;;12.93;78.44;100764.62;1685488;83;21138;-60
2021/10/02 06:51:48;;;;;;;30.88;12.75;;;;;;;13.20;76.81;100769.44;1676039;83;20969;-60
2021/10/02 06:54:14;;;;;;;14.95;10.90;;;;;;;13.22;73.84;100771.38;1715731;83;20921;-59
2021/10/02 06:56:43;;;;;;;14.33;9.63;;;;;;;13.11;74.62;100764.98;1722464;82;20913;-59
2021/10/02 06:59:10;;;;;;;17.42;11.57;;;;;;;13.23;74.53;100771.68;1712547;83;20893;-60
2021/10/02 07:01:38;;;;;;;;;;;;;;;13.27;76.37;100764.75;1716353;83;21079;-59
2021/10/02 07:04:04;;;;;;;14.93;8.90;;;;;;;13.83;73.19;100767.06;1686425;83;20111;-60
2021/10/02 07:06:32;;;;;;;12.35;8.58;;;;;;;13.91;70.10;100763.97;1685504;85;20907;-60
2021/10/02 07:08:59;;;;;;;14.65;8.95;;;;;;;13.91;70.10;100763.97;1693677;83;21347;-59
2021/10/02 07:11:27;;;;;;;12.47;7.72;;;;;;;13.78;70.19;100757.54;1701302;83;20985;-60
2021/10/02 07:13:54;;;;;;;14.87;8.33;;;;;;;13.83;68.51;100759.50;1685089;85;21156;-57
2021/10/02 07:16:22;;;;;;;;;;;;;;;13.97;68.34;100766.75;1695750;83;21439;-57
2021/10/02 07:18:48;;;;;;;15.43;8.80;;;;;;;13.94;66.42;100769.41;1684938;84;20128;-59
2021/10/02 07:21:16;;;;;;;13.47;7.60;;;;;;;13.91;66.55;100768.52;1685470;85;21010;-60
2021/10/02 07:23:44;;;;;;;;;;;;;;;13.94;68.18;100768.87;1686692;85;21013;-60
2021/10/02 07:26:10;;;;;;;12.18;7.87;;;;;;;14.04;66.16;100765.51;1685232;83;21956;-60
2021/10/02 07:28:39;;;;;;;9.70;7.70;;;;;;;14.03;65.01;100753.59;1684897;85;21456;-57
2021/10/02 07:31:05;;;;;;;16.15;8.30;;;;;;;14.15;65.32;100755.66;1684804;84;20918;-59
2021/10/02 07:33:32;;;;;;;11.73;7.80;;;;;;;14.32;65.38;100765.09;1684962;85;20958;-57
2021/10/02 07:35:58;;;;;;;13.58;7.00;;;;;;;14.55;64.09;100760.85;1685543;83;20946;-60
2021/10/02 07:38:25;;;;;;;10.08;7.40;;;;;;;15.00;64.42;100764.35;1685275;83;21836;-59
2021/10/02 07:40:51;;;;;;;12.50;8.10;;;;;;;15.10;61.26;100761.75;1686114;83;20983;-59
2021/10/02 07:43:18;;;;;;;13.88;9.68;;;;;;;14.97;62.31;100766.22;1685231;83;20989;-59
2021/10/02 07:45:45;;;;;;;16.17;9.25;;;;;;;14.97;61.32;100759.45;1687883;83;21099;-59
2021/10/02 07:48:18;;;;;;;15.23;7.37;;;;;;;14.88;61.08;100762.32;1704494;83;20905;-60
2021/10/02 07:50:44;;;;;;;9.85;6.83;;;;;;;14.88;60.98;100765.02;1712175;83;21134;-60
2021/10/02 07:53:11;;;;;;;12.30;6.80;;;;;;;15.08;62.38;100763.89;1708847;83;21434;-61
2021/10/02 07:55:39;;;;;;;15.30;8.03;;;;;;;15.40;61.03;100759.07;1702578;83;21058;-59
2021/10/02 07:58:06;;;;;;;10.08;6.80;;;;;;;15.51;59.48;100762.16;1685208;85;20912;-61
2021/10/02 08:00:34;;;;;;;17.98;7.50;;;;;;;15.70;59.43;100759.89;1685142;85;20995;-60
2021/10/02 08:03:01;;;;;;;11.18;7.15;;;;;;;15.83;56.96;100759.48;1684977;85;21195;-59
2021/10/02 08:05:28;;;;;;;11.70;7.00;;;;;;;15.76;57.21;100747.23;1685365;85;20917;-60
2021/10/02 08:07:54;;;;;;;16.65;7.05;;;;;;;15.70;58.63;100755.03;1685080;85;21051;-60
2021/10/02 08:10:26;;;;;;;10.18;6.92;;;;;;;15.70;58.63;100755.03;1685314;85;21344;-59
2021/10/02 08:12:51;;;;;;;15.80;7.10;;;;;;;15.73;56.73;100752.64;1703160;82;20868;-60
2021/10/02 08:15:20;;;;;;;13.58;7.28;;;;;;;15.90;57.62;100746.23;1714103;83;20948;-59
2021/10/02 08:17:46;;;;;;;10.75;6.70;;;;;;;16.11;57.09;100748.56;1712312;83;20968;-59
2021/10/02 08:20:17;;;;;;;10.48;6.12;;;;;;;16.22;54.56;100746.20;1713047;83;21000;-60
2021/10/02 08:22:49;;;;;;;8.10;6.33;;;;;;;16.44;55.62;100746.86;1713677;83;20937;-61
2021/10/02 08:25:17;;;;;;;10.32;5.83;;;;;;;16.42;53.80;100741.42;1713681;83;20956;-60
2021/10/02 08:27:46;;;;;;;7.58;5.47;;;;;;;16.38;54.19;100753.86;1694359;83;21125;-60
2021/10/02 08:30:15;;;;;;;10.32;5.75;;;;;;;16.36;52.94;100756.02;1685026;83;20916;-60
2021/10/02 08:32:42;;;;;;;9.08;5.75;;;;;;;16.12;52.58;100747.47;1687352;83;21004;-60
2021/10/02 08:35:10;;;;;;;10.38;5.47;;;;;;;16.19;52.23;100739.93;1694862;83;20987;-60
2021/10/02 08:37:38;;;;;;;16.77;8.75;;;;;;;16.41;51.49;100739.27;1677671;84;20830;-57
2021/10/02 08:40:10;;;;;;;9.35;6.40;;;;;;;16.36;51.00;100739.75;1677234;84;21959;-58
2021/10/02 08:42:38;;;;;;;10.18;6.00;;;;;;;16.39;53.44;100739.22;1677366;85;20933;-59
2021/10/02 08:45:07;;;;;;;9.03;5.90;;;;;;;16.45;53.06;100736.83;1677440;84;21020;-58
2021/10/02 08:47:39;;;;;;;8.50;6.35;;;;;;;16.66;51.89;100736.39;1684818;83;20906;-60
2021/10/02 08:50:07;;;;;;;11.18;5.60;;;;;;;16.68;50.55;100731.48;1679735;85;21037;-59
2021/10/02 08:52:35;;;;;;;;;;;;;;;16.46;50.48;100724.89;1682194;85;21747;-60
2021/10/02 08:55:03;;;;;;;7.92;5.40;;;;;;;16.71;51.19;100723.66;1687763;83;28498;-59
2021/10/02 08:57:33;;;;;;;9.23;5.28;;;;;;;16.87;50.21;100725.89;1685171;85;21462;-59
2021/10/02 09:00:06;;;;;;;7.58;4.70;;;;;;;16.51;49.73;100722.20;1689356;83;20929;-61
2021/10/02 09:02:33;;;;;;;8.38;5.37;;;;;;;16.67;51.21;100721.20;1685366;85;21353;-60
2021/10/02 09:05:01;;;;;;;;;;;;;;;16.67;51.21;100721.20;1688893;83;20930;-60
2021/10/02 09:07:28;;;;;;;5.75;4.92;;;;;;;16.88;48.22;100715.34;1685179;85;20124;-60
2021/10/02 09:09:56;;;;;;;;;;;;;;;16.80;48.36;100717.19;1687531;85;21009;-60
2021/10/02 09:12:23;;;;;;;8.70;6.62;;;;;;;16.78;48.66;100722.09;1662991;85;20488;-60
2021/10/02 09:14:52;;;;;;;11.85;7.62;;;;;;;16.75;47.99;100711.73;1684670;85;21081;-60
2021/10/02 09:17:21;;;;;;;15.40;9.45;;;;;;;16.90;48.22;100711.82;1684907;85;21511;-60
2021/10/02 09:19:47;;;;;;;9.00;5.75;;;;;;;16.85;48.09;100711.78;1684833;83;20898;-61
2021/10/02 09:22:18;;;;;;;11.50;6.65;;;;;;;17.01;47.28;100705.87;1692659;82;21001;-60
2021/10/02 09:24:47;;;;;;;12.85;6.83;;;;;;;17.40;48.45;100706.73;1751394;82;21466;-60
2021/10/02 09:27:24;;;;;;;9.73;5.85;;;;;;;17.69;45.42;100715.69;1751612;82;21012;-60
2021/10/02 09:29:56;;;;;;;6.73;5.50;;;;;;;17.49;45.61;100708.34;1749828;82;20857;-60
2021/10/02 09:32:38;;;;;;;10.48;5.37;;;;;;;17.22;45.71;100705.89;1713162;82;20934;-60
2021/10/02 09:35:13;;;;;;;9.38;5.97;;;;;;;17.10;46.75;100706.97;1670849;86;21478;-60
2021/10/02 09:37:44;;;;;;;11.85;5.72;;;;;;;17.29;47.22;100713.22;1676160;84;21395;-60
2021/10/02 09:40:18;;;;;;;10.93;6.17;;;;;;;17.36;46.58;100701.01;1687698;83;21025;-61
2021/10/02 09:42:51;;;;;;;13.25;6.67;;;;;;;17.40;46.55;100712.70;1692600;84;21879;-59
2021/10/02 09:45:30;;;;;;;9.98;6.53;;;;;;;17.69;47.04;100701.56;1698696;84;20902;-59
2021/10/02 09:48:00;;;;;;;15.83;5.92;;;;;;;17.79;45.77;100700.19;1696116;84;20963;-59
2021/10/02 09:50:30;;;;;;;14.03;6.80;;;;;;;17.60;44.59;100665.73;1698715;83;20969;-59
2021/10/02 09:53:08;;;;;;;9.50;6.55;;;;;;;17.26;45.59;100677.95;1698644;83;21424;-58
2021/10/02 09:55:44;;;;;;;11.00;6.33;;;;;;;17.26;45.59;100677.95;1696739;84;21716;-60
2021/10/02 09:58:17;;;;;;;24.98;10.82;;;;;;;17.39;45.70;100687.44;1673053;84;20874;-60
2021/10/02 10:00:48;;;;;;;8.65;5.78;;;;;;;17.82;45.95;100680.39;1664766;84;20986;-60
2021/10/02 10:03:17;;;;;;;11.25;6.08;;;;;;;17.61;44.36;100672.78;1671381;84;21435;-60
2021/10/02 10:05:48;;;;;;;14.05;5.80;;;;;;;17.49;44.89;100673.05;1671048;84;21042;-59
2021/10/02 10:08:27;;;;;;;12.78;6.85;;;;;;;17.81;45.11;100676.88;1672083;84;20993;-59
2021/10/02 10:11:08;;;;;;;10.98;6.42;;;;;;;17.53;44.21;100653.23;1670483;86;20962;-59
2021/10/02 10:13:35;;;;;;;11.65;5.87;;;;;;;17.61;43.89;100671.42;1671703;84;21028;-60
2021/10/02 10:16:09;;;;;;;9.78;6.70;;;;;;;17.50;44.41;100661.13;1670652;84;20917;-59
2021/10/02 10:18:38;;;;;;;7.92;5.65;;;;;;;17.59;44.19;100667.64;1670184;85;20969;-59
2021/10/02 10:21:09;;;;;;;11.65;6.45;;;;;;;17.57;44.60;100661.12;1670543;86;21098;-59
2021/10/02 10:23:43;;;;;;;12.43;7.72;;;;;;;17.78;44.15;100663.79;1670606;85;20969;-60
2021/10/02 10:26:18;;;;;;;13.75;6.87;;;;;;;17.67;44.16;100659.48;1684385;84;20988;-59
2021/10/02 10:28:48;;;;;;;8.23;5.80;;;;;;;17.77;43.46;100639.91;1729563;82;21534;-60
2021/10/02 10:31:23;;;;;;;9.00;6.58;;;;;;;17.70;44.09;100648.88;1733199;82;21360;-60
2021/10/02 10:33:52;;;;;;;15.13;7.65;;;;;;;18.03;45.70;100651.27;1733383;82;21087;-61
2021/10/02 10:36:23;;;;;;;11.70;7.12;;;;;;;18.27;43.01;100650.90;1680778;82;20877;-60
2021/10/02 10:38:51;;;;;;;13.43;7.83;;;;;;;18.48;43.90;100653.55;1664804;85;21047;-60
2021/10/02 10:41:21;;;;;;;14.30;7.80;;;;;;;18.48;42.58;100644.03;1679887;83;20960;-61
2021/10/02 10:43:49;;;;;;;12.33;7.35;;;;;;;18.57;43.64;100639.09;1671355;84;20937;-61
2021/10/02 10:46:25;;;;;;;11.40;6.03;;;;;;;18.41;42.64;100641.61;1675234;83;21185;-60
2021/10/02 10:48:53;;;;;;;16.37;6.58;;;;;;;18.71;43.17;100641.97;1703652;82;20869;-60
2021/10/02 10:51:21;;;;;;;9.05;7.05;;;;;;;18.52;43.79;100643.20;1691154;82;21101;-61
2021/10/02 10:53:49;;;;;;;;;;;;;;;18.43;42.09;100635.35;1680659;84;20932;-60
2021/10/02 10:56:35;;;;;;;;;;;;;;;18.49;44.24;100627.97;1700787;84;20102;-61
2021/10/02 10:59:02;;;;;;;11.57;6.10;;;;;;;19.00;43.60;100628.48;1692076;84;21127;-61
2021/10/02 11:01:37;;;;;;;10.18;6.53;;;;;;;19.51;42.17;100626.44;1688513;84;20962;-60
2021/10/02 11:04:04;;;;;;;7.40;5.75;;;;;;;19.19;41.12;100612.28;1680208;84;20895;-60
2021/10/02 11:06:50;;;;;;;10.40;6.83;;;;;;;18.87;41.87;100624.25;1674341;84;21428;-61
2021/10/02 11:09:42;;;;;;;;;;;;;;;18.50;41.92;100617.38;1693234;84;20950;-60
2021/10/02 11:12:16;;;;;;;8.75;5.28;;;;;;;18.48;42.33;100617.66;1681684;85;21126;-61
2021/10/02 11:14:59;;;;;;;7.70;5.15;;;;;;;18.61;42.90;100613.49;1677819;84;20989;-63
2021/10/02 11:17:37;;;;;;;8.50;5.80;;;;;;;18.88;41.74;100608.98;1707484;82;20930;-61
2021/10/02 11:20:20;;;;;;;10.55;6.20;;;;;;;18.60;41.77;100614.60;1708964;83;21443;-59
2021/10/02 11:23:23;;;;;;;13.80;5.97;;;;;;;18.68;41.61;100609.91;1707773;83;21438;-61
2021/10/02 11:26:25;;;;;;;10.05;5.72;;;;;;;18.70;41.44;100606.92;1618933;88;21073;-60
2021/10/02 11:29:04;;;;;;;12.37;6.28;;;;;;;18.59;41.87;100602.08;1636286;87;20987;-60
2021/10/02 11:31:34;;;;;;;13.85;6.53;;;;;;;18.79;41.59;100594.36;1664509;82;21074;-60
2021/10/02 11:34:01;;;;;;;8.83;5.72;;;;;;;19.01;41.33;100597.47;1680964;85;21042;-60
2021/10/02 11:36:40;;;;;;;15.30;5.95;;;;;;;18.82;40.94;100589.73;1681456;85;21125;-60
2021/10/02 11:39:15;;;;;;;15.35;8.10;;;;;;;18.19;41.58;100595.78;1680260;84;21046;-60
2021/10/02 11:41:50;;;;;;;15.63;8.08;;;;;;;18.48;42.18;100595.91;1680472;85;21428;-60
2021/10/02 11:44:37;;;;;;;15.18;6.87;;;;;;;18.55;41.99;100593.69;1692491;84;21007;-60
2021/10/02 11:47:24;;;;;;;;;;;;;;;18.61;41.46;100591.74;1682681;84;20978;-60
2021/10/02 11:50:19;;;;;;;16.55;5.80;;;;;;;18.17;40.92;100585.19;1681193;85;20111;-61
2021/10/02 11:52:54;;;;;;;9.13;5.30;;;;;;;18.02;42.58;100585.27;1681164;85;21211;-60
2021/10/02 11:55:42;;;;;;;10.82;6.95;;;;;;;18.23;42.19;100587.88;1680847;84;20868;-60
2021/10/02 11:58:12;;;;;;;9.60;5.78;;;;;;;18.24;42.38;100580.81;1679858;85;20993;-60
2021/10/02 12:00:47;;;;;;;9.78;6.20;;;;;;;18.43;42.08;100579.63;1658806;84;21030;-60
2021/10/02 12:03:26;;;;;;;7.97;5.47;;;;;;;18.52;43.17;100583.38;1694673;84;21037;-61
2021/10/02 12:05:58;;;;;;;9.10;5.67;;;;;;;18.51;42.26;100578.22;1672599;85;21322;-61
2021/10/02 12:08:25;;;;;;;8.60;5.78;;;;;;;18.41;41.84;100583.17;1670281;84;21023;-60
2021/10/02 12:11:10;;;;;;;5.70;4.60;;;;;;;18.14;41.01;100574.08;1674395;84;20968;-62
2021/10/02 12:13:49;;;;;;;10.75;6.12;;;;;;;17.96;42.39;100572.81;1669117;86;21014;-62
2021/10/02 12:16:29;;;;;;;15.32;6.33;;;;;;;18.11;42.41;100571.92;1674193;84;20920;-62
2021/10/02 12:19:11;;;;;;;7.90;5.60;;;;;;;17.96;42.38;100569.54;1647172;85;21882;-62
2021/10/02 12:21:47;;;;;;;12.05;5.85;;;;;;;18.23;41.96;100568.86;1683366;84;20973;-61
2021/10/02 12:24:18;;;;;;;8.10;5.40;;;;;;;18.48;41.58;100561.12;1708578;84;20879;-62
2021/10/02 12:26:54;;;;;;;7.78;6.28;;;;;;;18.37;41.27;100561.71;1666950;86;21012;-61
2021/10/02 12:29:29;;;;;;;9.37;5.80;;;;;;;18.33;41.94;100564.20;1670105;84;21524;-62